TKV weather

Tomahawk Regional Airport
Tomahawk, Wisconsin, United States

Public forecast

Using degrees Fahrenheit for public forecast. Weather courtesy of forecast.io.

Current aviation weather report (METAR) for Tomahawk Regional Airport

Retrieved 2020/02/23 15:15 UTC (7 minutes ago):

KTKV 231515Z AUTO 26004KT 7SM CLR 00/M03 A2975 RMK AO2 T00001028 PWINO

Closest aviation forecast (TAF) to Tomahawk Regional Airport

Closest forecast is Rhinelander Oneida County Airport, 17.2 nm (31.9 km) NE. Retrieved 2020/02/23 12:33 UTC (3 hours ago):

TAF KRHI 231130Z 2312/2412 23008G15KT P6SM BKN008 TEMPO 2312/2314 4SM BR FM231500 25011G18KT P6SM SCT250 WS016/29035KT FM240100 28007KT P6SM BKN250 FM240800 30005KT P6SM BKN012